KAC285 OKKK-OMDB
Flight info
| Callsign | KAC285 |
|---|---|
| Flight time | N/A |
| Altitude | 39000 |
| Route | SESRU M677 VUTEB |
| Aircraft | B77W/H-SDE1E2E3FGHIJ2J3J4J5M1RWXY/LB1D1 |
Departure
| Time | 2026-05-08 13:04 |
|---|---|
| Airport | Kuwait International Airport (OKKK) |
Arrival
| Time | N/A |
|---|---|
| Airport | Dubai International Airport (OMDB) |
| Time | Latitude | Longitude | Altitude | Speed | Heading |
|---|---|---|---|---|---|
| 2026-05-08 12:34 | 29.23886 | 47.97011 | 171 ft | 0 kts | 25° |
| 2026-05-08 12:53 | 29.23867 | 47.97001 | 171 ft | 4 kts | 25° |
| 2026-05-08 12:54 | 29.23842 | 47.96988 | 172 ft | 4 kts | 25° |
| 2026-05-08 12:54 | 29.23821 | 47.96981 | 171 ft | 4 kts | 330° |
| 2026-05-08 12:54 | 29.23807 | 47.97001 | 172 ft | 2 kts | 286° |
| 2026-05-08 12:54 | 29.23801 | 47.97026 | 172 ft | 4 kts | 284° |
| 2026-05-08 12:55 | 29.23795 | 47.97055 | 171 ft | 3 kts | 285° |
| 2026-05-08 12:55 | 29.23793 | 47.97061 | 171 ft | 0 kts | 286° |
| 2026-05-08 12:58 | 29.23793 | 47.97060 | 172 ft | 1 kts | 286° |
| 2026-05-08 12:59 | 29.23798 | 47.97024 | 172 ft | 8 kts | 274° |
| 2026-05-08 12:59 | 29.23783 | 47.96944 | 171 ft | 14 kts | 250° |
| 2026-05-08 12:59 | 29.23734 | 47.96821 | 171 ft | 21 kts | 246° |
| 2026-05-08 12:59 | 29.23666 | 47.96669 | 170 ft | 20 kts | 237° |
| 2026-05-08 13:00 | 29.23582 | 47.96652 | 168 ft | 15 kts | 161° |
| 2026-05-08 13:00 | 29.23466 | 47.96711 | 167 ft | 21 kts | 151° |
| 2026-05-08 13:00 | 29.23318 | 47.96791 | 169 ft | 26 kts | 157° |
| 2026-05-08 13:00 | 29.23130 | 47.96888 | 171 ft | 32 kts | 155° |
| 2026-05-08 13:01 | 29.22920 | 47.97001 | 172 ft | 27 kts | 155° |
| 2026-05-08 13:01 | 29.22735 | 47.97100 | 172 ft | 31 kts | 155° |
| 2026-05-08 13:01 | 29.22535 | 47.97206 | 172 ft | 32 kts | 155° |
| 2026-05-08 13:01 | 29.22326 | 47.97317 | 172 ft | 34 kts | 155° |
| 2026-05-08 13:02 | 29.22110 | 47.97434 | 171 ft | 35 kts | 155° |
| 2026-05-08 13:02 | 29.21974 | 47.97496 | 171 ft | 12 kts | 174° |
| 2026-05-08 13:02 | 29.21932 | 47.97467 | 170 ft | 5 kts | 249° |
| 2026-05-08 13:02 | 29.21934 | 47.97427 | 170 ft | 6 kts | 280° |
| 2026-05-08 13:03 | 29.21945 | 47.97366 | 170 ft | 11 kts | 285° |
| 2026-05-08 13:03 | 29.21986 | 47.97256 | 171 ft | 18 kts | 307° |
| 2026-05-08 13:03 | 29.22137 | 47.97163 | 170 ft | 38 kts | 335° |
| 2026-05-08 13:03 | 29.22679 | 47.96882 | 168 ft | 143 kts | 337° |
| 2026-05-08 13:04 | 29.23873 | 47.96243 | 500 ft | 216 kts | 337° |
| 2026-05-08 13:04 | 29.25204 | 47.95551 | 2034 ft | 213 kts | 335° |
| 2026-05-08 13:04 | 29.26620 | 47.94795 | 2822 ft | 238 kts | 335° |
| 2026-05-08 13:04 | 29.28176 | 47.93967 | 3655 ft | 251 kts | 335° |
| 2026-05-08 13:05 | 29.29800 | 47.93109 | 4654 ft | 262 kts | 335° |
| 2026-05-08 13:05 | 29.31473 | 47.92227 | 5674 ft | 269 kts | 334° |
| 2026-05-08 13:05 | 29.33206 | 47.91390 | 6635 ft | 275 kts | 342° |
| 2026-05-08 13:05 | 29.35162 | 47.91317 | 7469 ft | 289 kts | 11° |
| 2026-05-08 13:06 | 29.36985 | 47.92327 | 8460 ft | 299 kts | 40° |
| 2026-05-08 13:06 | 29.38316 | 47.94177 | 9482 ft | 305 kts | 59° |
| 2026-05-08 13:06 | 29.39354 | 47.96332 | 10370 ft | 313 kts | 62° |
| 2026-05-08 13:06 | 29.40389 | 47.98599 | 10888 ft | 338 kts | 62° |
| 2026-05-08 13:07 | 29.41540 | 48.01106 | 11128 ft | 370 kts | 62° |
| 2026-05-08 13:07 | 29.42767 | 48.03824 | 11444 ft | 391 kts | 66° |
| 2026-05-08 13:07 | 29.43374 | 48.06903 | 12068 ft | 402 kts | 89° |
| 2026-05-08 13:07 | 29.42995 | 48.10081 | 13071 ft | 402 kts | 109° |
| 2026-05-08 13:08 | 29.41999 | 48.13023 | 13976 ft | 403 kts | 114° |
| 2026-05-08 13:08 | 29.40895 | 48.16070 | 14716 ft | 413 kts | 114° |
| 2026-05-08 13:08 | 29.39819 | 48.19123 | 15481 ft | 422 kts | 114° |
| 2026-05-08 13:08 | 29.38733 | 48.22286 | 16305 ft | 429 kts | 113° |
| 2026-05-08 13:09 | 29.37635 | 48.25517 | 17100 ft | 438 kts | 113° |
| 2026-05-08 13:09 | 29.36515 | 48.28805 | 17892 ft | 447 kts | 113° |
| 2026-05-08 13:09 | 29.35371 | 48.32161 | 18581 ft | 455 kts | 113° |
| 2026-05-08 13:09 | 29.34210 | 48.35563 | 19381 ft | 458 kts | 114° |
| 2026-05-08 13:10 | 29.33063 | 48.38922 | 20342 ft | 457 kts | 115° |
| 2026-05-08 13:10 | 29.31902 | 48.42323 | 21272 ft | 458 kts | 115° |
| 2026-05-08 13:10 | 29.30735 | 48.45732 | 22087 ft | 461 kts | 116° |
| 2026-05-08 13:10 | 29.29558 | 48.49166 | 22814 ft | 465 kts | 116° |
| 2026-05-08 13:11 | 29.28363 | 48.52647 | 23545 ft | 469 kts | 117° |
| 2026-05-08 13:11 | 29.27166 | 48.56132 | 24135 ft | 472 kts | 117° |
| 2026-05-08 13:11 | 29.25956 | 48.59652 | 24690 ft | 477 kts | 117° |
| 2026-05-08 13:11 | 29.24737 | 48.63193 | 25240 ft | 480 kts | 117° |
| 2026-05-08 13:12 | 29.23508 | 48.66765 | 25812 ft | 483 kts | 117° |
| 2026-05-08 13:12 | 29.22264 | 48.70373 | 26294 ft | 489 kts | 117° |
| 2026-05-08 13:12 | 29.21021 | 48.73976 | 26771 ft | 494 kts | 117° |
| 2026-05-08 13:12 | 29.19755 | 48.77647 | 27287 ft | 498 kts | 118° |
| 2026-05-08 13:13 | 29.18477 | 48.81349 | 27773 ft | 501 kts | 118° |
| 2026-05-08 13:13 | 29.17184 | 48.85089 | 28247 ft | 505 kts | 118° |
| 2026-05-08 13:13 | 29.15868 | 48.88840 | 28683 ft | 505 kts | 121° |
| 2026-05-08 13:13 | 29.14153 | 48.92239 | 28958 ft | 496 kts | 136° |
| 2026-05-08 13:14 | 29.11711 | 48.94931 | 29323 ft | 480 kts | 148° |
| 2026-05-08 13:14 | 29.09083 | 48.97323 | 29656 ft | 485 kts | 148° |
| 2026-05-08 13:14 | 29.06460 | 48.99770 | 30153 ft | 486 kts | 148° |
| 2026-05-08 13:14 | 29.03996 | 49.02126 | 30689 ft | 484 kts | 148° |
| 2026-05-08 13:15 | 29.01431 | 49.04617 | 31249 ft | 482 kts | 148° |
| 2026-05-08 13:15 | 28.98919 | 49.07071 | 31712 ft | 481 kts | 148° |
| 2026-05-08 13:15 | 28.96369 | 49.09562 | 32121 ft | 482 kts | 148° |
| 2026-05-08 13:15 | 28.93814 | 49.12054 | 32545 ft | 482 kts | 149° |
| 2026-05-08 13:16 | 28.91257 | 49.14544 | 33059 ft | 480 kts | 149° |
| 2026-05-08 13:16 | 28.88723 | 49.17008 | 33607 ft | 477 kts | 149° |
| 2026-05-08 13:16 | 28.86230 | 49.19453 | 34065 ft | 477 kts | 149° |
| 2026-05-08 13:16 | 28.83745 | 49.21974 | 34438 ft | 478 kts | 148° |
| 2026-05-08 13:17 | 28.81264 | 49.24535 | 34736 ft | 480 kts | 148° |
| 2026-05-08 13:17 | 28.78784 | 49.27100 | 35041 ft | 481 kts | 148° |
| 2026-05-08 13:17 | 28.76304 | 49.29659 | 35397 ft | 480 kts | 148° |
| 2026-05-08 13:17 | 28.73825 | 49.32205 | 35759 ft | 479 kts | 148° |
| 2026-05-08 13:18 | 28.71371 | 49.34715 | 36111 ft | 479 kts | 148° |
| 2026-05-08 13:18 | 28.68889 | 49.37249 | 36421 ft | 479 kts | 149° |
| 2026-05-08 13:18 | 28.66400 | 49.39787 | 36747 ft | 479 kts | 149° |
| 2026-05-08 13:18 | 28.63908 | 49.42335 | 37019 ft | 481 kts | 148° |
| 2026-05-08 13:19 | 28.61575 | 49.45055 | 37298 ft | 491 kts | 142° |
| 2026-05-08 13:19 | 28.59405 | 49.48092 | 37598 ft | 499 kts | 137° |
| 2026-05-08 13:19 | 28.57460 | 49.51424 | 37871 ft | 507 kts | 131° |
| 2026-05-08 13:19 | 28.55645 | 49.54877 | 38180 ft | 509 kts | 130° |
| 2026-05-08 13:20 | 28.53874 | 49.58317 | 38477 ft | 509 kts | 130° |
| 2026-05-08 13:20 | 28.52077 | 49.61791 | 38702 ft | 509 kts | 131° |
| 2026-05-08 13:20 | 28.48411 | 49.68732 | 38836 ft | 510 kts | 131° |
| 2026-05-08 13:21 | 28.44747 | 49.75594 | 38866 ft | 503 kts | 132° |
| 2026-05-08 13:21 | 28.42752 | 49.78786 | 38875 ft | 489 kts | 140° |
| 2026-05-08 13:21 | 28.40505 | 49.81564 | 38878 ft | 478 kts | 147° |
| 2026-05-08 13:22 | 28.35435 | 49.86203 | 38879 ft | 459 kts | 156° |
| 2026-05-08 13:22 | 28.30107 | 49.90187 | 38872 ft | 459 kts | 157° |
| 2026-05-08 13:23 | 28.24765 | 49.94174 | 38876 ft | 460 kts | 157° |
| 2026-05-08 13:23 | 28.19454 | 49.98180 | 38860 ft | 461 kts | 156° |
| 2026-05-08 13:24 | 28.14225 | 50.02139 | 38882 ft | 462 kts | 156° |
| 2026-05-08 13:24 | 28.08907 | 50.06166 | 38876 ft | 463 kts | 156° |
| 2026-05-08 13:25 | 28.03549 | 50.10216 | 38877 ft | 463 kts | 156° |
| 2026-05-08 13:25 | 27.98196 | 50.14257 | 38876 ft | 463 kts | 156° |
| 2026-05-08 13:26 | 27.93740 | 50.17616 | 38877 ft | 462 kts | 156° |
| 2026-05-08 13:26 | 27.88380 | 50.21652 | 38870 ft | 461 kts | 156° |
| 2026-05-08 13:27 | 27.83029 | 50.25677 | 38861 ft | 461 kts | 156° |
| 2026-05-08 13:27 | 27.77727 | 50.29660 | 38872 ft | 460 kts | 156° |
| 2026-05-08 13:28 | 27.72381 | 50.33670 | 38870 ft | 460 kts | 156° |
| 2026-05-08 13:28 | 27.67031 | 50.37681 | 38868 ft | 461 kts | 156° |
| 2026-05-08 13:29 | 27.61688 | 50.41684 | 38861 ft | 461 kts | 155° |
| 2026-05-08 13:29 | 27.56404 | 50.45755 | 38864 ft | 463 kts | 154° |
| 2026-05-08 13:30 | 27.51075 | 50.49887 | 38867 ft | 463 kts | 154° |
| 2026-05-08 13:30 | 27.45783 | 50.53966 | 38863 ft | 464 kts | 155° |
| 2026-05-08 13:31 | 27.40442 | 50.58056 | 38860 ft | 464 kts | 155° |
| 2026-05-08 13:31 | 27.35089 | 50.62135 | 38861 ft | 464 kts | 155° |
| 2026-05-08 13:32 | 27.29774 | 50.66184 | 38850 ft | 464 kts | 155° |
| 2026-05-08 13:32 | 27.24438 | 50.70248 | 38846 ft | 462 kts | 154° |
| 2026-05-08 13:33 | 27.19108 | 50.74303 | 38852 ft | 461 kts | 154° |
| 2026-05-08 13:33 | 27.13905 | 50.78605 | 38847 ft | 469 kts | 147° |
| 2026-05-08 13:34 | 27.09263 | 50.83783 | 38834 ft | 474 kts | 142° |
| 2026-05-08 13:34 | 27.04657 | 50.89073 | 38839 ft | 473 kts | 143° |
| 2026-05-08 13:35 | 27.00133 | 50.94479 | 38842 ft | 479 kts | 137° |